Time;durP1;ratioP1;P1;durP2;ratioP2;P2;SDS_P1;SDS_P2;PMS_P1;PMS_P2;Temp;Humidity;BMP_temperature;BMP_pressure;BME280_temperature;BME280_humidity;BME280_pressure;Samples;Min_cycle;Max_cycle;Signal;HPM_P1;HPM_P2
2023/04/30 00:00:10;;;;;;;13.48;3.78;;;;;;;;;;4815835;29;20038;-79
2023/04/30 00:02:37;;;;;;;7.07;2.55;;;;;;;;;;4818376;29;20030;-79
2023/04/30 00:05:03;;;;;;;7.18;2.88;;;;;;;;;;4818124;29;20037;-79
2023/04/30 00:07:30;;;;;;;8.15;2.50;;;;;;;;;;4818174;29;20030;-80
2023/04/30 00:09:56;;;;;;;7.05;2.08;;;;;;;;;;4820473;29;20129;-80
2023/04/30 00:12:22;;;;;;;11.73;3.05;;;;;;;;;;4816384;29;20440;-80
2023/04/30 00:14:49;;;;;;;12.07;3.45;;;;;;;;;;4816033;29;20035;-80
2023/04/30 00:17:15;;;;;;;8.27;2.63;;;;;;;;;;4819116;29;20061;-79
2023/04/30 00:19:41;;;;;;;10.20;2.25;;;;;;;;;;4822078;29;20057;-79
2023/04/30 00:22:07;;;;;;;6.03;2.17;;;;;;;;;;4817816;29;20062;-77
2023/04/30 00:24:35;;;;;;;12.77;2.45;;;;;;;;;;4819289;29;20089;-77
2023/04/30 00:27:01;;;;;;;9.02;2.33;;;;;;;;;;4817453;29;20027;-77
2023/04/30 00:29:27;;;;;;;7.15;1.70;;;;;;;;;;4817095;29;20038;-78
2023/04/30 00:31:53;;;;;;;10.15;2.58;;;;;;;;;;4812023;29;20094;-77
2023/04/30 00:34:19;;;;;;;11.45;2.20;;;;;;;;;;4818331;29;20038;-77
2023/04/30 00:36:45;;;;;;;10.85;2.40;;;;;;;;;;4814294;29;20035;-78
2023/04/30 00:39:11;;;;;;;10.40;2.65;;;;;;;;;;4818671;29;20120;-78
2023/04/30 00:41:38;;;;;;;10.48;2.53;;;;;;;;;;4817740;29;20449;-78
2023/04/30 00:44:05;;;;;;;11.13;3.53;;;;;;;;;;4822116;29;20035;-78
2023/04/30 00:46:31;;;;;;;7.07;2.75;;;;;;;;;;4816297;29;20563;-78
2023/04/30 00:48:58;;;;;;;10.50;2.97;;;;;;;;;;4822307;29;20046;-78
2023/04/30 00:51:25;;;;;;;6.82;2.10;;;;;;;;;;4820261;29;20038;-77
2023/04/30 00:53:51;;;;;;;14.73;2.30;;;;;;;;;;4815763;29;20107;-77
2023/04/30 00:56:17;;;;;;;10.18;3.25;;;;;;;;;;4819327;29;20053;-78
2023/04/30 00:58:43;;;;;;;9.15;2.88;;;;;;;;;;4815386;29;20061;-78
2023/04/30 01:01:09;;;;;;;11.90;2.35;;;;;;;;;;4817349;29;20126;-78
2023/04/30 01:03:35;;;;;;;8.60;2.58;;;;;;;;;;4814170;29;20062;-78
2023/04/30 01:06:02;;;;;;;14.30;2.88;;;;;;;;;;4815546;29;20065;-77
2023/04/30 01:08:29;;;;;;;8.40;2.10;;;;;;;;;;4814659;29;20045;-78
2023/04/30 01:11:01;;;;;;;7.70;2.10;;;;;;;;;;4815895;29;20050;-78
2023/04/30 01:13:34;;;;;;;4.60;2.38;;;;;;;;;;4813495;29;20090;-78
2023/04/30 01:16:09;;;;;;;8.52;2.38;;;;;;;;;;4816574;29;20487;-77
2023/04/30 01:18:39;;;;;;;6.45;2.45;;;;;;;;;;4815895;29;20035;-78
2023/04/30 01:21:05;;;;;;;11.63;2.38;;;;;;;;;;4831080;29;20502;-78
2023/04/30 01:23:41;;;;;;;8.73;2.30;;;;;;;;;;4813857;29;20094;-77
2023/04/30 01:26:15;;;;;;;12.25;3.28;;;;;;;;;;4817228;29;20049;-78
2023/04/30 01:28:45;;;;;;;14.20;2.50;;;;;;;;;;4818022;29;20374;-77
2023/04/30 01:31:15;;;;;;;13.60;2.58;;;;;;;;;;4811535;29;20130;-78
2023/04/30 01:33:41;;;;;;;12.40;2.95;;;;;;;;;;4816834;29;20049;-77
2023/04/30 01:36:07;;;;;;;11.93;3.63;;;;;;;;;;4814325;29;20050;-77
2023/04/30 01:38:52;;;;;;;12.25;3.00;;;;;;;;;;4817458;29;20506;-78
2023/04/30 01:41:22;;;;;;;11.88;3.85;;;;;;;;;;4825778;29;20034;-77
2023/04/30 01:43:57;;;;;;;9.20;3.00;;;;;;;;;;4817806;29;20030;-77
2023/04/30 01:46:28;;;;;;;9.57;3.47;;;;;;;;;;4815366;29;20041;-77
2023/04/30 01:49:15;;;;;;;10.82;3.08;;;;;;;;;;4817231;29;20042;-77
2023/04/30 01:51:44;;;;;;;5.63;2.05;;;;;;;;;;4810133;29;20585;-76
2023/04/30 01:54:21;;;;;;;11.23;2.65;;;;;;;;;;4814868;29;20114;-77
2023/04/30 01:57:02;;;;;;;9.45;3.22;;;;;;;;;;4812788;29;20039;-78
2023/04/30 01:59:29;;;;;;;9.77;2.78;;;;;;;;;;4810344;29;20046;-77
2023/04/30 02:01:55;;;;;;;6.65;2.88;;;;;;;;;;4808295;29;20528;-77
2023/04/30 02:04:21;;;;;;;5.47;2.45;;;;;;;;;;4816193;29;20453;-77
2023/04/30 02:06:47;;;;;;;12.55;3.03;;;;;;;;;;4816281;29;20121;-77
2023/04/30 02:09:13;;;;;;;11.05;3.05;;;;;;;;;;4817301;29;20042;-77
2023/04/30 02:11:39;;;;;;;8.68;3.35;;;;;;;;;;4813979;29;20042;-77
2023/04/30 02:14:05;;;;;;;9.85;4.07;;;;;;;;;;4814858;29;20109;-78
2023/04/30 02:16:31;;;;;;;12.52;3.85;;;;;;;;;;4813639;29;20087;-77
2023/04/30 02:18:57;;;;;;;9.38;3.05;;;;;;;;;;4818806;29;20081;-77
2023/04/30 02:21:23;;;;;;;7.40;2.95;;;;;;;;;;4818019;29;20062;-77
2023/04/30 02:23:49;;;;;;;7.47;2.80;;;;;;;;;;4815110;29;20042;-77
2023/04/30 02:26:15;;;;;;;12.65;3.67;;;;;;;;;;4811515;29;20771;-77
2023/04/30 02:28:41;;;;;;;12.75;4.35;;;;;;;;;;4813975;29;20039;-77
2023/04/30 02:31:08;;;;;;;8.10;2.65;;;;;;;;;;4808481;29;20038;-76
2023/04/30 02:33:34;;;;;;;10.88;2.47;;;;;;;;;;4813632;29;20413;-76
2023/04/30 02:36:00;;;;;;;6.85;2.35;;;;;;;;;;4812586;29;20058;-77
2023/04/30 02:38:27;;;;;;;16.30;4.00;;;;;;;;;;4810650;29;20246;-77
2023/04/30 02:40:53;;;;;;;11.40;2.78;;;;;;;;;;4815322;29;20318;-80
2023/04/30 02:43:19;;;;;;;10.45;2.83;;;;;;;;;;4806028;29;20035;-78
2023/04/30 02:45:44;;;;;;;8.23;2.05;;;;;;;;;;4814597;29;20095;-78
2023/04/30 02:48:11;;;;;;;10.77;2.85;;;;;;;;;;4808487;29;20409;-77
2023/04/30 02:50:37;;;;;;;8.73;2.08;;;;;;;;;;4811811;29;20117;-77
2023/04/30 02:53:03;;;;;;;5.10;2.47;;;;;;;;;;4810567;29;20106;-76
2023/04/30 02:55:30;;;;;;;9.52;2.33;;;;;;;;;;4816892;29;20228;-76
2023/04/30 02:57:56;;;;;;;11.15;2.63;;;;;;;;;;4809988;29;20087;-77
2023/04/30 03:00:22;;;;;;;10.38;2.58;;;;;;;;;;4812617;29;20035;-77
2023/04/30 03:02:48;;;;;;;8.38;2.80;;;;;;;;;;4811715;29;20043;-78
2023/04/30 03:05:14;;;;;;;11.98;2.65;;;;;;;;;;4809654;29;20038;-77
2023/04/30 03:07:40;;;;;;;11.80;2.33;;;;;;;;;;4813002;29;20034;-77
2023/04/30 03:10:07;;;;;;;9.38;2.30;;;;;;;;;;4807295;29;20039;-78
2023/04/30 03:12:33;;;;;;;8.57;2.50;;;;;;;;;;4819715;29;20046;-78
2023/04/30 03:14:59;;;;;;;11.82;2.58;;;;;;;;;;4813536;29;20046;-77
2023/04/30 03:17:25;;;;;;;10.80;2.72;;;;;;;;;;4820586;29;20030;-77
2023/04/30 03:19:54;;;;;;;10.43;3.10;;;;;;;;;;4812007;29;20484;-77
2023/04/30 03:22:22;;;;;;;12.35;2.88;;;;;;;;;;4812761;29;20035;-77
2023/04/30 03:24:48;;;;;;;7.88;2.33;;;;;;;;;;4815429;29;20534;-77
2023/04/30 03:27:15;;;;;;;11.70;3.10;;;;;;;;;;4814849;29;20050;-77
2023/04/30 03:29:41;;;;;;;15.25;2.22;;;;;;;;;;4811904;29;20110;-77
2023/04/30 03:32:08;;;;;;;8.68;2.70;;;;;;;;;;4815337;29;20031;-77
2023/04/30 03:34:34;;;;;;;8.75;3.58;;;;;;;;;;4813243;29;20043;-77
2023/04/30 03:37:00;;;;;;;8.45;2.60;;;;;;;;;;4811887;29;20044;-79
2023/04/30 03:39:26;;;;;;;13.43;2.13;;;;;;;;;;4819998;29;20050;-78
2023/04/30 03:41:52;;;;;;;7.32;2.40;;;;;;;;;;4819340;29;20117;-77
2023/04/30 03:44:18;;;;;;;6.25;2.47;;;;;;;;;;4818420;29;20035;-77
2023/04/30 03:46:44;;;;;;;9.35;2.42;;;;;;;;;;4805676;29;20469;-77
2023/04/30 03:49:11;;;;;;;8.75;2.20;;;;;;;;;;4818164;29;20070;-77
2023/04/30 03:51:40;;;;;;;8.52;3.50;;;;;;;;;;4816940;29;20385;-77
2023/04/30 03:54:07;;;;;;;6.43;2.50;;;;;;;;;;4818774;29;20133;-77
2023/04/30 03:56:33;;;;;;;6.28;2.65;;;;;;;;;;4812966;29;20081;-77
2023/04/30 03:59:00;;;;;;;11.95;2.50;;;;;;;;;;4816071;29;20042;-80
2023/04/30 04:01:26;;;;;;;9.98;3.08;;;;;;;;;;4823381;29;20400;-78
2023/04/30 04:03:52;;;;;;;8.70;2.78;;;;;;;;;;4822946;29;20042;-77
2023/04/30 04:06:18;;;;;;;9.75;2.92;;;;;;;;;;4820481;29;20030;-77
2023/04/30 04:08:45;;;;;;;7.68;2.50;;;;;;;;;;4818711;29;20117;-77
2023/04/30 04:11:11;;;;;;;10.38;2.50;;;;;;;;;;4818629;29;20072;-79
2023/04/30 04:13:37;;;;;;;10.20;2.50;;;;;;;;;;4819991;29;20041;-79
2023/04/30 04:16:03;;;;;;;8.20;2.10;;;;;;;;;;4817942;29;20050;-78
2023/04/30 04:18:32;;;;;;;10.70;2.63;;;;;;;;;;4816474;29;20591;-77
2023/04/30 04:20:58;;;;;;;10.15;2.45;;;;;;;;;;4821178;29;20042;-77
2023/04/30 04:23:24;;;;;;;4.88;2.58;;;;;;;;;;4813393;29;20038;-77
2023/04/30 04:25:51;;;;;;;8.15;2.72;;;;;;;;;;4819854;29;20150;-77
2023/04/30 04:28:17;;;;;;;13.30;3.10;;;;;;;;;;4813825;29;20582;-77
2023/04/30 04:30:43;;;;;;;11.48;2.67;;;;;;;;;;4816041;29;20112;-77
2023/04/30 04:33:10;;;;;;;9.85;2.20;;;;;;;;;;4817618;29;20034;-77
2023/04/30 04:35:36;;;;;;;11.05;2.40;;;;;;;;;;4817496;29;20441;-77
2023/04/30 04:38:03;;;;;;;6.05;2.50;;;;;;;;;;4815957;29;20065;-78
2023/04/30 04:40:29;;;;;;;8.32;2.67;;;;;;;;;;4820641;29;20481;-78
2023/04/30 04:42:55;;;;;;;10.75;3.13;;;;;;;;;;4818904;29;20045;-78
2023/04/30 04:45:22;;;;;;;5.90;2.42;;;;;;;;;;4813998;29;20030;-78
2023/04/30 04:47:48;;;;;;;8.23;2.45;;;;;;;;;;4817494;29;20026;-78
2023/04/30 04:50:14;;;;;;;8.30;2.38;;;;;;;;;;4816189;29;20695;-77
2023/04/30 04:52:40;;;;;;;10.30;2.78;;;;;;;;;;4819119;29;20046;-77
2023/04/30 04:55:06;;;;;;;6.93;2.30;;;;;;;;;;4817221;29;20042;-78
2023/04/30 04:57:32;;;;;;;11.38;2.83;;;;;;;;;;4814069;29;20074;-78
2023/04/30 04:59:58;;;;;;;10.65;2.33;;;;;;;;;;4809744;29;20090;-76
2023/04/30 05:02:25;;;;;;;14.40;3.25;;;;;;;;;;4819245;29;20027;-82
2023/04/30 05:04:51;;;;;;;10.35;2.50;;;;;;;;;;4822770;29;20030;-81
2023/04/30 05:07:17;;;;;;;8.57;2.88;;;;;;;;;;4837444;29;20029;-84
2023/04/30 05:09:45;;;;;;;11.05;3.45;;;;;;;;;;4818438;29;20035;-81
2023/04/30 05:12:16;;;;;;;11.27;2.90;;;;;;;;;;4818145;29;20058;-79
2023/04/30 05:14:43;;;;;;;7.85;2.13;;;;;;;;;;4815630;29;20038;-78
2023/04/30 05:17:09;;;;;;;30.50;13.85;;;;;;;;;;4815385;29;20070;-78
2023/04/30 05:19:35;;;;;;;20.60;10.48;;;;;;;;;;4824258;29;20068;-79
2023/04/30 05:22:01;;;;;;;11.68;4.80;;;;;;;;;;4829325;29;20061;-80
2023/04/30 05:24:29;;;;;;;15.07;3.03;;;;;;;;;;4817642;29;20145;-79
2023/04/30 05:26:55;;;;;;;8.68;2.67;;;;;;;;;;4819106;29;20106;-75
2023/04/30 05:29:21;;;;;;;10.88;3.22;;;;;;;;;;4822506;29;20046;-79
2023/04/30 05:31:47;;;;;;;11.75;3.20;;;;;;;;;;4819993;29;20050;-78
2023/04/30 05:34:14;;;;;;;13.00;3.15;;;;;;;;;;4807032;29;20069;-77
2023/04/30 05:36:40;;;;;;;10.65;2.72;;;;;;;;;;4821678;29;20080;-77
2023/04/30 05:39:06;;;;;;;13.35;2.83;;;;;;;;;;4836901;29;20061;-80
2023/04/30 05:41:32;;;;;;;15.70;4.32;;;;;;;;;;4821007;29;20142;-77
2023/04/30 05:43:59;;;;;;;10.25;2.60;;;;;;;;;;4809412;29;20461;-78
2023/04/30 05:46:25;;;;;;;13.43;3.22;;;;;;;;;;4820364;29;20066;-77
2023/04/30 05:48:51;;;;;;;12.00;3.13;;;;;;;;;;4818104;29;20044;-77
2023/04/30 05:51:17;;;;;;;11.02;3.20;;;;;;;;;;4814253;29;20103;-80
2023/04/30 05:53:43;;;;;;;10.50;3.17;;;;;;;;;;4816080;29;20468;-80
2023/04/30 05:56:09;;;;;;;36.45;16.38;;;;;;;;;;4815911;29;20092;-77
2023/04/30 05:58:35;;;;;;;15.10;5.68;;;;;;;;;;4823962;29;20114;-81
2023/04/30 06:01:01;;;;;;;14.00;4.18;;;;;;;;;;4805169;29;20604;-80
2023/04/30 06:03:27;;;;;;;15.35;3.70;;;;;;;;;;4823675;29;20046;-78
2023/04/30 06:05:53;;;;;;;12.02;2.80;;;;;;;;;;4817792;29;20049;-79
2023/04/30 06:08:19;;;;;;;7.82;2.72;;;;;;;;;;4815707;29;20163;-81
2023/04/30 06:10:45;;;;;;;12.05;3.25;;;;;;;;;;4828640;29;20400;-80
2023/04/30 06:13:13;;;;;;;12.02;2.65;;;;;;;;;;4821260;29;20047;-80
2023/04/30 06:15:40;;;;;;;10.93;2.88;;;;;;;;;;4822104;29;20385;-77
2023/04/30 06:18:06;;;;;;;8.50;2.85;;;;;;;;;;4820516;29;20050;-78
2023/04/30 06:20:32;;;;;;;12.57;2.95;;;;;;;;;;4822373;29;20042;-78
2023/04/30 06:22:59;;;;;;;11.63;3.15;;;;;;;;;;4821982;29;20022;-80
2023/04/30 06:25:25;;;;;;;8.65;3.00;;;;;;;;;;4819638;29;20046;-78
2023/04/30 06:27:52;;;;;;;12.50;2.45;;;;;;;;;;4816921;29;20095;-81
2023/04/30 06:30:21;;;;;;;10.02;2.97;;;;;;;;;;4820166;29;20045;-80
2023/04/30 06:32:47;;;;;;;12.77;3.22;;;;;;;;;;4811654;29;20034;-79
2023/04/30 06:35:13;;;;;;;7.28;2.45;;;;;;;;;;4803488;29;20053;-79
2023/04/30 06:37:40;;;;;;;9.90;2.83;;;;;;;;;;4809348;29;20503;-78
2023/04/30 06:40:06;;;;;;;11.68;2.42;;;;;;;;;;4813339;29;20035;-80
2023/04/30 06:42:34;;;;;;;9.50;2.38;;;;;;;;;;4815299;29;20050;-77
2023/04/30 06:45:01;;;;;;;13.43;2.40;;;;;;;;;;4811529;29;20543;-80
2023/04/30 06:47:27;;;;;;;9.65;2.20;;;;;;;;;;4815455;29;20038;-78
2023/04/30 06:49:53;;;;;;;14.48;2.50;;;;;;;;;;4811067;29;20347;-80
2023/04/30 06:52:19;;;;;;;5.72;2.10;;;;;;;;;;4813177;29;20163;-76
2023/04/30 06:54:45;;;;;;;9.68;2.17;;;;;;;;;;4814050;29;20038;-78
2023/04/30 06:57:11;;;;;;;10.52;2.67;;;;;;;;;;4816092;29;20105;-80
2023/04/30 06:59:38;;;;;;;9.30;2.30;;;;;;;;;;4812980;29;20123;-79
2023/04/30 07:02:04;;;;;;;10.25;2.72;;;;;;;;;;4813743;29;20034;-81
2023/04/30 07:04:30;;;;;;;9.55;2.30;;;;;;;;;;4813295;29;20034;-79
2023/04/30 07:06:56;;;;;;;14.07;2.55;;;;;;;;;;4824060;29;20235;-80
2023/04/30 07:09:22;;;;;;;9.07;2.35;;;;;;;;;;4818127;29;20163;-82
2023/04/30 07:11:50;;;;;;;10.25;2.78;;;;;;;;;;4821349;29;20041;-79
2023/04/30 07:14:16;;;;;;;6.93;2.38;;;;;;;;;;4831899;29;20463;-78
2023/04/30 07:16:42;;;;;;;8.10;2.03;;;;;;;;;;4818915;29;20040;-78
2023/04/30 07:19:08;;;;;;;10.60;2.03;;;;;;;;;;4816441;29;20059;-79
2023/04/30 07:21:34;;;;;;;7.57;2.25;;;;;;;;;;4819724;29;20454;-81
2023/04/30 07:24:00;;;;;;;10.52;3.08;;;;;;;;;;4816692;29;20035;-80
2023/04/30 07:26:26;;;;;;;10.73;3.35;;;;;;;;;;4822767;29;20042;-76
2023/04/30 07:28:52;;;;;;;7.35;2.47;;;;;;;;;;4821101;29;20496;-86
2023/04/30 07:31:19;;;;;;;12.32;2.85;;;;;;;;;;4826170;29;20039;-87
2023/04/30 07:33:45;;;;;;;11.55;2.33;;;;;;;;;;4799654;29;20041;-83
2023/04/30 07:36:11;;;;;;;7.43;2.00;;;;;;;;;;4813407;29;20065;-86
2023/04/30 07:38:37;;;;;;;9.32;2.53;;;;;;;;;;4815419;29;20448;-83
2023/04/30 07:41:03;;;;;;;7.90;2.33;;;;;;;;;;4814931;29;20037;-80
2023/04/30 07:43:29;;;;;;;6.80;1.95;;;;;;;;;;4816958;29;20117;-82
2023/04/30 07:45:56;;;;;;;9.65;3.85;;;;;;;;;;4817871;29;20366;-80
2023/04/30 07:48:22;;;;;;;10.35;2.50;;;;;;;;;;4818024;29;20019;-81
2023/04/30 07:50:48;;;;;;;19.50;3.00;;;;;;;;;;4814538;29;20041;-83
2023/04/30 07:53:14;;;;;;;8.98;2.35;;;;;;;;;;4812245;29;20039;-83
2023/04/30 07:55:40;;;;;;;13.63;2.40;;;;;;;;;;4813620;29;20126;-83
2023/04/30 07:58:06;;;;;;;9.43;2.70;;;;;;;;;;4816651;29;20125;-83
2023/04/30 08:00:33;;;;;;;10.27;2.20;;;;;;;;;;4816470;29;20397;-89
2023/04/30 08:02:59;;;;;;;8.20;2.45;;;;;;;;;;4818824;29;20033;-80
2023/04/30 08:05:25;;;;;;;10.40;1.95;;;;;;;;;;4816856;29;20034;-85
2023/04/30 08:07:51;;;;;;;7.75;2.38;;;;;;;;;;4820993;29;20030;-85
2023/04/30 08:10:17;;;;;;;11.18;2.13;;;;;;;;;;4812767;29;20091;-88
2023/04/30 08:12:48;;;;;;;8.95;2.10;;;;;;;;;;4816477;29;20038;-82
2023/04/30 08:15:14;;;;;;;8.18;3.30;;;;;;;;;;4820154;29;20545;-85
2023/04/30 08:17:40;;;;;;;11.52;3.70;;;;;;;;;;4819129;29;20106;-90
2023/04/30 08:20:07;;;;;;;5.53;1.73;;;;;;;;;;4820635;29;20121;-78
2023/04/30 08:22:35;;;;;;;9.63;1.65;;;;;;;;;;4817771;29;20117;-83
2023/04/30 08:25:01;;;;;;;10.60;2.40;;;;;;;;;;4827955;29;20065;-83
2023/04/30 08:27:27;;;;;;;9.07;1.90;;;;;;;;;;4836439;29;20042;-84
2023/04/30 08:29:55;;;;;;;15.55;2.38;;;;;;;;;;4836843;29;20050;-84
2023/04/30 08:32:21;;;;;;;11.43;2.42;;;;;;;;;;4832361;29;20057;-86
2023/04/30 08:34:47;;;;;;;7.30;2.22;;;;;;;;;;4831460;29;20098;-85
2023/04/30 08:37:13;;;;;;;6.07;1.98;;;;;;;;;;4831895;29;20033;-84
2023/04/30 08:39:39;;;;;;;7.45;2.20;;;;;;;;;;4835817;29;20113;-83
2023/04/30 08:42:08;;;;;;;8.75;2.05;;;;;;;;;;4835056;29;20076;-83
2023/04/30 08:44:35;;;;;;;7.68;1.73;;;;;;;;;;4830574;29;20472;-86
2023/04/30 08:47:01;;;;;;;9.15;1.60;;;;;;;;;;4833783;29;20029;-84
2023/04/30 08:49:31;;;;;;;7.75;1.60;;;;;;;;;;4833257;29;20043;-82
2023/04/30 08:51:59;;;;;;;10.32;2.88;;;;;;;;;;4837115;29;20038;-84
2023/04/30 08:54:25;;;;;;;12.20;1.55;;;;;;;;;;4834973;29;20026;-83
2023/04/30 08:56:51;;;;;;;6.32;2.13;;;;;;;;;;4836017;29;20048;-83
2023/04/30 08:59:17;;;;;;;7.25;1.95;;;;;;;;;;4832979;29;20033;-83
2023/04/30 09:01:43;;;;;;;5.78;1.73;;;;;;;;;;4835678;29;20140;-92
2023/04/30 09:04:10;;;;;;;8.05;2.08;;;;;;;;;;4843597;29;20575;-83
2023/04/30 09:06:36;;;;;;;6.90;2.10;;;;;;;;;;4842379;29;20061;-86
2023/04/30 09:09:10;;;;;;;7.93;2.03;;;;;;;;;;4845063;29;20037;-83
2023/04/30 09:11:36;;;;;;;6.85;2.03;;;;;;;;;;4829745;29;20049;-90
2023/04/30 09:14:02;;;;;;;6.43;1.63;;;;;;;;;;4849942;29;20030;-83
2023/04/30 09:16:31;;;;;;;4.70;1.73;;;;;;;;;;4850702;29;20379;-83
2023/04/30 09:18:58;;;;;;;8.48;1.98;;;;;;;;;;4831320;29;20105;-90
2023/04/30 09:21:35;;;;;;;4.78;1.95;;;;;;;;;;4828273;29;20501;-84
2023/04/30 09:24:02;;;;;;;6.78;2.25;;;;;;;;;;4832737;29;20041;-84
2023/04/30 09:26:32;;;;;;;8.18;2.17;;;;;;;;;;4816758;29;20140;-84
2023/04/30 09:28:59;;;;;;;9.82;2.28;;;;;;;;;;4820134;29;20049;-89
2023/04/30 09:31:26;;;;;;;8.02;2.00;;;;;;;;;;4817028;29;20118;-83
2023/04/30 09:33:53;;;;;;;5.78;1.88;;;;;;;;;;4812891;29;20602;-82
2023/04/30 09:36:19;;;;;;;6.93;1.80;;;;;;;;;;4814597;29;20026;-78
2023/04/30 09:38:46;;;;;;;6.38;1.55;;;;;;;;;;4815934;29;20051;-84
2023/04/30 09:41:41;;;;;;;9.48;2.45;;;;;;;;;;4813923;29;20220;-80
2023/04/30 09:44:07;;;;;;;9.52;3.10;;;;;;;;;;4794451;29;20130;-81
2023/04/30 09:46:36;;;;;;;22.13;12.70;;;;;;;;;;4831088;29;20041;-80
2023/04/30 09:49:03;;;;;;;8.27;3.30;;;;;;;;;;4816649;29;20029;-79
2023/04/30 09:51:29;;;;;;;10.63;3.78;;;;;;;;;;4826284;29;20193;-79
2023/04/30 09:53:56;;;;;;;9.75;3.90;;;;;;;;;;4818396;29;20126;-81
2023/04/30 09:56:23;;;;;;;6.07;2.08;;;;;;;;;;4815723;29;20035;-78
2023/04/30 09:58:53;;;;;;;6.32;1.58;;;;;;;;;;4815699;29;20023;-79
2023/04/30 10:01:20;;;;;;;6.20;2.25;;;;;;;;;;4816569;29;20030;-81
2023/04/30 10:03:47;;;;;;;7.07;1.70;;;;;;;;;;4813013;29;20042;-77
2023/04/30 10:06:14;;;;;;;4.65;1.85;;;;;;;;;;4815139;29;20078;-78
2023/04/30 10:08:42;;;;;;;3.33;1.48;;;22.60;99.90;;;;;;4812827;29;20030;-77
2023/04/30 10:11:08;;;;;;;6.25;1.95;;;;;;;;;;4816019;29;20397;-80
2023/04/30 10:13:41;;;;;;;8.68;2.17;;;;;;;;;;4815186;29;20030;-78
2023/04/30 10:16:11;;;;;;;3.67;1.58;;;;;;;;;;4813925;29;20034;-77
2023/04/30 10:18:39;;;;;;;6.35;1.65;;;;;;;;;;4813130;29;20121;-77
2023/04/30 10:21:09;;;;;;;6.20;1.70;;;;;;;;;;4816210;29;20078;-77
2023/04/30 10:23:36;;;;;;;5.60;1.60;;;;;;;;;;4816722;29;20110;-78
2023/04/30 10:26:03;;;;;;;5.63;1.42;;;;;;;;;;4816746;29;20041;-81
2023/04/30 10:28:30;;;;;;;2.83;1.20;;;;;;;;;;4817219;29;20047;-79
2023/04/30 10:30:56;;;;;;;4.30;1.50;;;;;;;;;;4815395;29;20026;-81
2023/04/30 10:33:28;;;;;;;3.13;1.20;;;;;;;;;;4814245;29;20041;-81
2023/04/30 10:36:07;;;;;;;3.38;1.30;;;23.00;99.90;;;;;;4811747;29;20057;-75
2023/04/30 10:38:34;;;;;;;5.65;1.38;;;;;;;;;;4817175;29;21290;-83
2023/04/30 10:41:00;;;;;;;5.85;1.85;;;;;;;;;;4816965;29;20559;-79
2023/04/30 10:43:27;;;;;;;3.22;1.63;;;;;;;;;;4815104;29;20342;-79
2023/04/30 10:45:53;;;;;;;3.00;0.82;;;;;;;;;;4816816;29;20134;-83
2023/04/30 10:48:25;;;;;;;2.17;0.80;;;21.90;99.90;;;;;;4818672;29;20046;-78
2023/04/30 10:50:55;;;;;;;2.03;1.00;;;21.50;99.90;;;;;;4816811;29;20442;-79
2023/04/30 10:53:24;;;;;;;2.30;1.00;;;;;;;;;;4820153;29;20118;-79
2023/04/30 10:56:06;;;;;;;1.83;0.85;;;21.40;99.90;;;;;;4815910;29;20046;-77
2023/04/30 10:58:39;;;;;;;2.50;0.95;;;21.00;99.90;;;;;;4828387;29;20034;-81
2023/04/30 11:01:09;;;;;;;8.00;2.53;;;;;;;;;;4820932;29;20026;-81
2023/04/30 11:03:36;;;;;;;4.03;2.28;;;;;;;;;;4816115;29;20022;-83
2023/04/30 11:06:09;;;;;;;1.95;0.80;;;21.30;99.90;;;;;;4816109;29;20113;-79
2023/04/30 11:08:36;;;;;;;3.72;1.00;;;;;;;;;;4819785;29;20340;-80
2023/04/30 11:11:04;;;;;;;4.07;1.02;;;;;;;;;;4818354;29;20046;-81
2023/04/30 11:13:39;;;;;;;2.88;1.10;;;21.10;99.90;;;;;;4816575;29;20050;-78
2023/04/30 11:16:06;;;;;;;1.88;0.82;;;;;;;;;;4816506;29;20058;-82
2023/04/30 11:18:32;;;;;;;1.60;1.00;;;;;;;;;;4819276;29;20079;-80
2023/04/30 11:20:58;;;;;;;1.27;0.80;;;;;;;;;;4817521;29;20050;-78
2023/04/30 11:23:26;;;;;;;2.53;1.00;;;;;;;;;;4819374;29;20115;-76
2023/04/30 11:25:53;;;;;;;1.70;0.88;;;;;;;;;;4816489;29;20141;-77
2023/04/30 11:28:26;;;;;;;3.53;1.58;;;;;;;;;;4818301;29;20050;-78
2023/04/30 11:30:52;;;;;;;2.92;0.70;;;;;;;;;;4814800;29;20046;-76
2023/04/30 11:33:19;;;;;;;2.45;1.10;;;;;;;;;;4820735;29;20503;-79
2023/04/30 11:35:45;;;;;;;1.73;0.82;;;;;;;;;;4819484;29;20465;-76
2023/04/30 11:38:15;;;;;;;1.17;0.75;;;;;;;;;;4815623;29;20231;-81
2023/04/30 11:40:41;;;;;;;1.70;0.52;;;;;;;;;;4821076;29;20046;-80
2023/04/30 11:43:07;;;;;;;1.98;1.00;;;;;;;;;;4816996;29;20117;-76
2023/04/30 11:45:33;;;;;;;1.27;0.82;;;;;;;;;;4814907;29;20045;-78
2023/04/30 11:48:01;;;;;;;1.90;0.85;;;;;;;;;;4815819;29;20117;-77
2023/04/30 11:50:32;;;;;;;16.10;10.25;;;;;;;;;;4814767;29;20498;-76
2023/04/30 11:53:02;;;;;;;9.27;6.53;;;;;;;;;;4816344;29;20033;-77
2023/04/30 11:55:28;;;;;;;3.20;1.00;;;;;;;;;;4820612;29;20381;-83
2023/04/30 11:57:56;;;;;;;3.10;0.75;;;;;;;;;;4818892;29;20034;-76
2023/04/30 12:00:32;;;;;;;1.30;0.93;;;20.80;99.90;;;;;;4818491;29;20065;-79
2023/04/30 12:03:03;;;;;;;0.98;0.60;;;;;;;;;;4801697;29;20396;-83
2023/04/30 12:05:29;;;;;;;1.60;0.60;;;;;;;;;;4818101;29;20035;-81
2023/04/30 12:07:56;;;;;;;1.67;0.65;;;;;;;;;;4817272;29;20044;-82
2023/04/30 12:10:22;;;;;;;1.00;0.63;;;;;;;;;;4817120;29;20541;-84
2023/04/30 12:12:49;;;;;;;1.45;0.75;;;;;;;;;;4816855;29;20050;-84
2023/04/30 12:15:25;;;;;;;1.90;0.80;;;;;;;;;;4830109;29;20034;-82
2023/04/30 12:17:52;;;;;;;1.92;0.60;;;;;;;;;;4819137;29;20035;-82
2023/04/30 12:20:18;;;;;;;1.13;0.68;;;;;;;;;;4818293;29;20188;-82
2023/04/30 12:22:44;;;;;;;2.63;1.05;;;;;;;;;;4812441;29;20039;-81
2023/04/30 12:25:20;;;;;;;4.93;1.60;;;;;;;;;;4818286;29;20095;-81
2023/04/30 12:27:47;;;;;;;2.85;1.13;;;;;;;;;;4815459;29;20202;-80
2023/04/30 12:30:13;;;;;;;1.45;0.68;;;;;;;;;;4825533;29;20042;-84
2023/04/30 12:32:42;;;;;;;2.70;0.90;;;;;;;;;;4812923;29;20050;-81
2023/04/30 12:35:09;;;;;;;2.50;1.05;;;;;;;;;;4814925;29;20045;-80
2023/04/30 12:37:35;;;;;;;2.38;0.90;;;;;;;;;;4819373;29;20150;-81
2023/04/30 12:40:02;;;;;;;1.17;0.88;;;;;;;;;;4819578;29;20042;-84
2023/04/30 12:42:33;;;;;;;2.72;1.50;;;;;;;;;;4812975;29;20053;-82
2023/04/30 12:44:59;;;;;;;3.40;1.05;;;;;;;;;;4818708;29;20022;-81
2023/04/30 12:47:25;;;;;;;2.47;0.90;;;;;;;;;;4814769;29;20034;-79
2023/04/30 12:49:51;;;;;;;4.35;1.23;;;;;;;;;;4815921;29;20387;-82
2023/04/30 12:52:17;;;;;;;3.33;1.00;;;;;;;;;;4812584;29;20084;-76
2023/04/30 12:54:43;;;;;;;10.25;3.25;;;;;;;;;;4811997;29;20042;-81
2023/04/30 12:57:11;;;;;;;9.48;5.22;;;;;;;;;;4812733;29;20029;-83
2023/04/30 12:59:56;;;;;;;5.43;1.40;;;;;;;;;;4820974;29;20042;-81
2023/04/30 13:02:23;;;;;;;1.45;0.75;;;;;;;;;;4821083;29;20037;-78
2023/04/30 13:04:50;;;;;;;8.48;1.60;;;;;;;;;;4814650;29;20035;-84
2023/04/30 13:07:16;;;;;;;2.53;0.70;;;;;;;;;;4824723;29;20121;-81
2023/04/30 13:09:42;;;;;;;2.40;1.17;;;;;;;;;;4815390;29;20038;-80
2023/04/30 13:12:08;;;;;;;2.28;1.00;;;;;;;;;;4815684;29;20163;-85
2023/04/30 13:14:35;;;;;;;2.80;1.08;;;;;;;;;;4821756;29;20082;-85
2023/04/30 13:17:05;;;;;;;4.38;1.33;;;;;;;;;;4816511;29;20041;-80
2023/04/30 13:19:31;;;;;;;2.40;1.00;;;;;;;;;;4821186;29;20388;-82
2023/04/30 13:21:58;;;;;;;3.28;1.20;;;;;;;;;;4819971;29;20509;-79
2023/04/30 13:24:24;;;;;;;5.95;1.98;;;;;;;;;;4815888;29;20043;-82
2023/04/30 13:26:50;;;;;;;3.33;1.50;;;;;;;;;;4816832;29;20042;-80
2023/04/30 13:29:16;;;;;;;2.05;1.05;;;;;;;;;;4816107;29;20459;-82
2023/04/30 13:31:43;;;;;;;4.93;1.50;;;;;;;;;;4817823;29;20041;-79
2023/04/30 13:34:09;;;;;;;2.15;1.20;;;;;;;;;;4811521;29;20037;-79
2023/04/30 13:36:35;;;;;;;4.75;1.65;;;;;;;;;;4813039;29;20038;-80
2023/04/30 13:39:01;;;;;;;3.30;0.77;;;;;;;;;;4817340;29;20030;-82
2023/04/30 13:41:27;;;;;;;2.75;1.13;;;;;;;;;;4814194;29;20646;-82
2023/04/30 13:43:53;;;;;;;3.30;1.50;;;;;;;;;;4809809;29;20106;-82
2023/04/30 13:46:19;;;;;;;2.67;1.20;;;;;;;;;;4815708;29;20074;-80
2023/04/30 13:48:48;;;;;;;15.13;10.27;;;;;;;;;;4813851;29;20449;-77
2023/04/30 13:51:14;;;;;;;16.55;10.13;;;;;;;;;;4817021;29;20034;-78
2023/04/30 13:53:40;;;;;;;3.10;1.20;;;;;;;;;;4816409;29;20607;-79
2023/04/30 13:56:06;;;;;;;5.72;1.23;;;;;;;;;;4810875;29;20536;-76
2023/04/30 13:58:32;;;;;;;1.95;1.02;;;;;;;;;;4815552;29;20038;-76
2023/04/30 14:00:58;;;;;;;3.90;1.35;;;;;;;;;;4816592;29;20058;-75
2023/04/30 14:03:24;;;;;;;2.10;1.13;;;;;;;;;;4811859;29;20061;-77
2023/04/30 14:05:50;;;;;;;2.10;1.08;;;;;;;;;;4824439;29;20446;-76
2023/04/30 14:08:16;;;;;;;1.95;0.90;;;;;;;;;;4814133;29;20057;-77
2023/04/30 14:10:43;;;;;;;3.15;1.10;;;;;;;;;;4812415;29;20084;-77
2023/04/30 14:13:09;;;;;;;3.63;1.23;;;;;;;;;;4815190;29;20037;-75
2023/04/30 14:15:37;;;;;;;2.28;1.10;;;;;;;;;;4815677;29;20042;-75
2023/04/30 14:18:03;;;;;;;3.85;1.20;;;;;;;;;;4812579;29;20030;-74
2023/04/30 14:20:29;;;;;;;2.17;1.00;;;;;;;;;;4813908;29;20035;-76
2023/04/30 14:22:55;;;;;;;4.13;1.15;;;;;;;;;;4814975;29;20117;-76
2023/04/30 14:25:21;;;;;;;2.53;1.08;;;;;;;;;;4817961;29;20150;-76
2023/04/30 14:27:47;;;;;;;4.88;0.90;;;;;;;;;;4813525;29;20369;-74
2023/04/30 14:30:14;;;;;;;5.18;1.08;;;;;;;;;;4816953;29;20095;-76
2023/04/30 14:32:40;;;;;;;2.20;0.93;;;;;;;;;;4811591;29;20053;-76
2023/04/30 14:35:09;;;;;;;1.67;0.70;;;;;;;;;;4814402;29;20070;-74